createdAt,value
2018-08-30T00:00:09.550Z,432.77
2018-08-30T00:02:48.168Z,401.50
2018-08-30T00:05:28.060Z,801.73
2018-08-30T00:08:10.826Z,516.30
2018-08-30T00:10:52.778Z,360.77
2018-08-30T00:13:34.199Z,422.27
2018-08-30T00:16:14.222Z,223.13
2018-08-30T00:18:55.906Z,379.80
2018-08-30T00:21:36.658Z,882.83
2018-08-30T00:24:14.900Z,169.23
2018-08-30T00:26:56.887Z,223.67
2018-08-30T00:29:37.564Z,276.07
2018-08-30T00:32:19.003Z,300.43
2018-08-30T00:34:58.558Z,850.40
2018-08-30T00:37:40.970Z,490.90
2018-08-30T00:40:21.084Z,738.43
2018-08-30T00:43:00.983Z,823.63
2018-08-30T00:45:40.240Z,843.17
2018-08-30T00:48:20.162Z,310.90
2018-08-30T00:50:59.359Z,170.17
2018-08-30T00:53:40.858Z,194.87
2018-08-30T00:56:21.441Z,249.23
2018-08-30T00:59:00.425Z,336.73
2018-08-30T01:01:39.959Z,999.90
2018-08-30T01:04:19.399Z,516.23
2018-08-30T01:07:00.302Z,999.90
2018-08-30T01:09:42.714Z,347.13
2018-08-30T01:12:22.340Z,538.87
2018-08-30T01:15:00.422Z,284.20
2018-08-30T01:17:39.361Z,190.50
2018-08-30T01:20:21.104Z,159.27
2018-08-30T01:23:00.029Z,281.20
2018-08-30T01:25:38.482Z,291.57
2018-08-30T01:28:18.796Z,296.10
2018-08-30T01:31:00.461Z,150.07
2018-08-30T02:06:13.357Z,362.87
2018-08-30T02:08:52.095Z,541.23
2018-08-30T02:11:36.681Z,737.70
2018-08-30T02:14:18.059Z,297.93
2018-08-30T02:17:00.304Z,337.43
2018-08-30T02:19:39.464Z,377.77
2018-08-30T02:22:18.823Z,659.80
2018-08-30T02:24:57.740Z,495.83
2018-08-30T02:27:37.850Z,306.53
2018-08-30T03:17:48.021Z,448.13
2018-08-30T03:20:27.279Z,295.47
2018-08-30T03:23:07.004Z,385.37
2018-08-30T03:25:51.923Z,360.93
2018-08-30T03:28:32.502Z,363.23
2018-08-30T03:31:12.504Z,380.17
2018-08-30T03:33:52.961Z,330.33
2018-08-30T03:36:30.701Z,433.70
2018-08-30T03:39:12.560Z,381.10
2018-08-30T03:41:54.301Z,342.47
2018-08-30T03:44:35.719Z,435.13
2018-08-30T03:47:16.323Z,362.57
2018-08-30T03:49:57.199Z,369.57
2018-08-30T03:52:36.758Z,394.77
2018-08-30T03:55:16.470Z,355.10
2018-08-30T03:57:55.207Z,342.60
2018-08-30T04:00:35.779Z,306.50
2018-08-30T04:03:13.219Z,217.60
2018-08-30T05:05:47.892Z,477.53
2018-08-30T05:08:32.234Z,507.40
2018-08-30T05:11:11.295Z,338.50
2018-08-30T05:13:55.256Z,241.40
2018-08-30T05:16:38.004Z,342.53
2018-08-30T06:30:42.518Z,297.63
2018-08-30T06:33:20.533Z,526.60
2018-08-30T06:36:03.239Z,697.27
2018-08-30T06:38:51.921Z,364.33
2018-08-30T06:41:41.816Z,156.03
2018-08-30T06:44:24.592Z,774.40
2018-08-30T06:47:04.552Z,405.37
2018-08-30T06:49:45.512Z,566.27
2018-08-30T06:52:28.355Z,826.90
2018-08-30T06:55:07.773Z,753.13
2018-08-30T06:57:48.218Z,535.57
2018-08-30T07:00:31.749Z,986.70
2018-08-30T07:03:12.294Z,471.20
2018-08-30T07:05:51.933Z,394.57
2018-08-30T07:08:37.154Z,587.50
2018-08-30T07:11:18.913Z,825.40
2018-08-30T07:13:57.077Z,242.53
2018-08-30T07:16:39.634Z,803.83
2018-08-30T07:19:19.060Z,102.57
2018-08-30T07:21:58.510Z,999.90
2018-08-30T07:24:44.453Z,392.40
2018-08-30T07:27:24.579Z,243.80
2018-08-30T07:30:12.233Z,475.47
2018-08-30T07:32:59.293Z,927.43
2018-08-30T07:35:41.274Z,999.90
2018-08-30T08:14:00.613Z,747.33
2018-08-30T08:16:41.350Z,865.97
2018-08-30T08:19:25.775Z,135.43
2018-08-30T08:22:08.460Z,461.83
2018-08-30T08:24:47.273Z,988.63
2018-08-30T08:27:30.144Z,558.33
2018-08-30T08:30:19.809Z,999.90
2018-08-30T08:33:03.696Z,930.43
2018-08-30T08:35:45.232Z,830.10
2018-08-30T08:38:24.772Z,966.53
2018-08-30T08:41:05.156Z,940.07
2018-08-30T08:43:46.811Z,924.20
2018-08-30T08:46:25.594Z,267.80
2018-08-30T08:49:05.932Z,763.33
2018-08-30T08:51:50.052Z,718.63
2018-08-30T08:54:31.154Z,222.47
2018-08-30T08:57:11.794Z,445.60
2018-08-30T08:59:51.343Z,563.43
2018-08-30T09:02:32.297Z,840.03
2018-08-30T09:05:16.476Z,548.40
2018-08-30T09:07:55.537Z,920.77
2018-08-30T09:10:34.258Z,907.60
2018-08-30T09:13:17.692Z,720.80
2018-08-30T09:15:59.174Z,755.60
2018-08-30T09:18:37.532Z,860.77
2018-08-30T09:21:29.220Z,749.93
2018-08-30T09:24:08.467Z,941.53
2018-08-30T09:26:47.186Z,929.80
2018-08-30T09:29:31.740Z,876.70
2018-08-30T09:32:12.519Z,245.90
2018-08-30T09:34:56.831Z,185.80
2018-08-30T09:37:37.571Z,999.90
2018-08-30T09:40:21.755Z,999.90
2018-08-30T09:43:02.614Z,999.90
2018-08-30T09:45:41.913Z,999.90
2018-08-30T09:48:30.112Z,999.90
2018-08-30T09:51:11.818Z,999.90
2018-08-30T10:29:38.893Z,999.90
2018-08-30T10:35:07.655Z,999.90
2018-08-30T10:37:46.955Z,769.30
2018-08-30T10:40:28.314Z,999.90
2018-08-30T10:43:08.563Z,999.90
2018-08-30T10:45:46.133Z,999.90
2018-08-30T10:48:27.752Z,999.90
2018-08-30T10:51:05.591Z,999.90
2018-08-30T10:53:47.819Z,999.90
2018-08-30T10:56:28.656Z,752.07
2018-08-30T10:59:09.969Z,999.90
2018-08-30T11:01:49.675Z,999.90
2018-08-30T11:04:30.941Z,999.90
2018-08-30T11:07:12.132Z,999.90
2018-08-30T11:09:53.183Z,999.90
2018-08-30T11:12:41.748Z,999.90
2018-08-30T11:15:24.733Z,999.90
2018-08-30T11:18:04.261Z,999.90
2018-08-30T11:20:47.598Z,999.90
2018-08-30T11:23:28.796Z,999.90
2018-08-30T11:26:10.751Z,999.90
2018-08-30T11:28:52.538Z,999.90
2018-08-30T11:31:33.963Z,999.90
2018-08-30T11:34:17.016Z,999.90
2018-08-30T11:37:00.470Z,999.90
2018-08-30T11:39:46.333Z,999.90
2018-08-30T11:42:28.409Z,999.90
2018-08-30T11:45:08.274Z,999.90
2018-08-30T11:47:51.597Z,999.90
2018-08-30T11:50:34.692Z,999.90
2018-08-30T11:53:16.603Z,999.90
2018-08-30T11:55:59.268Z,999.90
2018-08-30T11:58:43.076Z,999.90
2018-08-30T12:01:27.073Z,999.90
2018-08-30T12:04:09.095Z,999.90
2018-08-30T12:06:51.150Z,999.90
2018-08-30T12:09:36.490Z,999.90
2018-08-30T12:12:16.576Z,999.90
2018-08-30T12:14:57.836Z,999.90
2018-08-30T12:17:41.236Z,999.90
2018-08-30T12:20:23.313Z,999.90
2018-08-30T12:23:08.597Z,999.90
2018-08-30T12:25:49.572Z,999.90
2018-08-30T12:28:30.558Z,999.90
2018-08-30T12:31:10.264Z,814.27
2018-08-30T12:33:50.261Z,999.90
2018-08-30T12:36:32.319Z,999.90
2018-08-30T12:39:16.400Z,999.90
2018-08-30T12:42:02.230Z,999.90
2018-08-30T12:44:45.541Z,999.90
2018-08-30T12:47:25.513Z,999.90
2018-08-30T12:50:10.039Z,999.90
2018-08-30T12:52:51.758Z,999.90
2018-08-30T12:55:32.425Z,999.90
2018-08-30T12:58:13.402Z,999.90
2018-08-30T13:00:53.774Z,999.90
2018-08-30T13:03:35.115Z,999.90
2018-08-30T13:06:14.249Z,999.90
2018-08-30T13:08:57.435Z,999.90
2018-08-30T13:11:35.790Z,999.90
2018-08-30T13:14:15.640Z,999.90
2018-08-30T13:16:55.822Z,999.90
2018-08-30T13:19:36.519Z,999.90
2018-08-30T13:22:20.262Z,999.90
2018-08-30T13:25:00.216Z,999.90
2018-08-30T13:27:42.641Z,999.90
2018-08-30T13:30:22.470Z,999.90
2018-08-30T13:33:03.554Z,879.23
2018-08-30T13:35:41.819Z,999.90
2018-08-30T13:38:21.462Z,768.90
2018-08-30T13:41:03.589Z,999.90
2018-08-30T13:43:43.732Z,799.93
2018-08-30T13:46:23.950Z,999.90
2018-08-30T13:49:04.988Z,999.90
2018-08-30T13:51:47.580Z,592.00
2018-08-30T13:54:29.746Z,999.90
2018-08-30T13:57:11.384Z,999.90
2018-08-30T13:59:52.791Z,798.70
2018-08-30T14:02:33.012Z,793.93
2018-08-30T14:05:15.352Z,266.43
2018-08-30T14:07:58.486Z,106.90
2018-08-30T14:10:40.987Z,333.83
2018-08-30T14:13:25.320Z,117.67
2018-08-30T14:16:07.194Z,195.07
2018-08-30T14:18:50.924Z,250.63
2018-08-30T14:21:34.572Z,230.47
2018-08-30T14:24:18.519Z,54.80
2018-08-30T14:27:02.121Z,88.47
2018-08-30T14:29:39.916Z,128.87
2018-08-30T14:32:18.097Z,352.13
2018-08-30T14:34:58.538Z,788.60
2018-08-30T14:37:41.933Z,188.20
2018-08-30T14:40:20.933Z,149.53
2018-08-30T14:43:02.418Z,74.40
2018-08-30T14:45:40.709Z,209.40
2018-08-30T14:48:23.573Z,301.87
2018-08-30T14:51:03.360Z,524.30
2018-08-30T14:53:43.444Z,209.50
2018-08-30T14:56:24.275Z,710.07
2018-08-30T14:59:04.655Z,999.90
2018-08-30T15:01:47.337Z,999.90
2018-08-30T15:04:28.959Z,927.10
2018-08-30T15:07:07.896Z,999.90
2018-08-30T15:09:46.279Z,999.90
2018-08-30T15:12:28.714Z,999.90
2018-08-30T15:15:09.155Z,707.47
2018-08-30T15:17:49.618Z,845.00
2018-08-30T15:20:28.692Z,999.90
2018-08-30T15:23:09.339Z,725.60
2018-08-30T15:25:48.400Z,999.90
2018-08-30T15:28:30.922Z,999.90
2018-08-30T15:31:12.161Z,999.90
2018-08-30T15:33:54.174Z,999.90
2018-08-30T15:36:35.133Z,999.90
2018-08-30T15:39:15.915Z,305.50
2018-08-30T15:41:54.195Z,999.90
2018-08-30T15:44:32.708Z,486.10
2018-08-30T16:01:33.155Z,990.93
2018-08-30T16:04:15.858Z,999.90
2018-08-30T16:06:55.041Z,424.87
2018-08-30T16:09:37.809Z,733.07
2018-08-30T16:12:16.143Z,999.90
2018-08-30T16:30:03.482Z,831.30
2018-08-30T16:32:46.897Z,834.77
2018-08-30T16:35:28.455Z,937.37
2018-08-30T16:38:07.354Z,999.90
2018-08-30T16:40:48.531Z,918.77
2018-08-30T16:43:33.654Z,999.90
2018-08-30T16:49:51.809Z,999.90
2018-08-30T16:52:30.377Z,999.90
2018-08-30T16:55:08.875Z,873.37
2018-08-30T16:57:46.355Z,999.90
2018-08-30T17:00:24.078Z,999.90
2018-08-30T17:03:05.155Z,999.90
2018-08-30T17:17:07.074Z,902.77
2018-08-30T17:19:47.653Z,999.90
2018-08-30T17:22:24.955Z,959.83
2018-08-30T17:25:05.286Z,935.93
2018-08-30T17:27:45.458Z,999.60
2018-08-30T17:34:46.299Z,999.90
2018-08-30T17:37:28.854Z,999.03
2018-08-30T17:40:10.774Z,999.90
2018-08-30T17:42:53.716Z,999.90
2018-08-30T17:45:33.986Z,999.90
2018-08-30T17:48:15.692Z,999.90
2018-08-30T17:50:58.586Z,999.90
2018-08-30T17:53:40.731Z,999.90
2018-08-30T17:56:20.103Z,999.90
2018-08-30T17:59:01.855Z,999.90
2018-08-30T18:01:44.401Z,999.90
2018-08-30T18:04:23.813Z,999.90
2018-08-30T18:11:22.266Z,999.90
2018-08-30T18:17:08.952Z,999.90
2018-08-30T18:19:46.555Z,999.90
2018-08-30T18:22:26.092Z,999.90
2018-08-30T18:25:07.595Z,999.90
2018-08-30T18:27:47.460Z,999.90
2018-08-30T18:30:27.758Z,999.90
2018-08-30T18:33:11.372Z,999.90
2018-08-30T18:35:53.362Z,999.90
2018-08-30T18:38:30.973Z,999.90
2018-08-30T18:41:09.875Z,999.90
2018-08-30T18:43:50.559Z,999.90
2018-08-30T18:46:32.537Z,999.90
2018-08-30T18:49:14.698Z,999.90
2018-08-30T18:51:55.331Z,999.90
2018-08-30T18:54:35.033Z,999.90
2018-08-30T18:57:17.536Z,999.90
2018-08-30T18:59:56.876Z,999.90
2018-08-30T19:02:35.034Z,958.60
2018-08-30T19:05:19.073Z,591.37
2018-08-30T19:07:59.455Z,455.20
2018-08-30T19:10:38.539Z,441.53
2018-08-30T19:13:16.664Z,304.73
2018-08-30T19:16:59.717Z,358.30
2018-08-30T19:19:40.737Z,375.03
2018-08-30T19:22:22.534Z,598.97
2018-08-30T19:25:09.001Z,498.47
2018-08-30T19:27:55.225Z,246.37
2018-08-30T19:30:36.651Z,69.23
2018-08-30T19:33:17.877Z,59.13
2018-08-30T19:36:01.434Z,224.83
2018-08-30T19:38:40.901Z,323.40
2018-08-30T19:41:25.178Z,501.47
2018-08-30T19:44:05.532Z,587.80
2018-08-30T19:46:44.875Z,701.53
2018-08-30T19:49:25.320Z,724.30
2018-08-30T19:52:03.118Z,728.27
2018-08-30T19:54:41.192Z,752.37
2018-08-30T19:57:21.694Z,706.10
2018-08-30T20:00:01.857Z,474.23
2018-08-30T20:02:40.733Z,395.23
2018-08-30T20:05:18.694Z,221.43
2018-08-30T20:07:58.516Z,240.77
2018-08-30T20:10:39.832Z,225.83
2018-08-30T20:13:20.516Z,91.47
2018-08-30T20:16:01.117Z,131.70
2018-08-30T20:18:40.242Z,328.37
2018-08-30T20:21:19.553Z,472.03
2018-08-30T20:23:56.716Z,437.03
2018-08-30T20:26:37.917Z,465.13
2018-08-30T20:29:17.698Z,418.23
2018-08-30T20:31:59.615Z,301.93
2018-08-30T20:34:38.979Z,118.33
2018-08-30T20:37:20.330Z,154.80
2018-08-30T20:40:01.193Z,92.97
2018-08-30T20:42:43.113Z,105.93
2018-08-30T20:45:21.916Z,132.60
2018-08-30T20:47:59.749Z,142.50
2018-08-30T20:50:43.291Z,142.83
2018-08-30T20:53:24.623Z,154.77
2018-08-30T20:56:07.355Z,206.20
2018-08-30T20:58:45.933Z,142.73
2018-08-30T21:01:26.633Z,191.03
2018-08-30T21:04:07.077Z,157.70
2018-08-30T21:06:47.594Z,152.70
2018-08-30T21:09:28.016Z,190.40
2018-08-30T21:12:04.482Z,198.13
2018-08-30T21:14:49.689Z,218.43
2018-08-30T21:17:35.383Z,226.67
2018-08-30T21:20:17.274Z,257.63
2018-08-30T21:22:55.455Z,354.77
2018-08-30T21:25:33.436Z,290.80
2018-08-30T21:28:13.571Z,305.17
2018-08-30T21:30:52.031Z,285.57
2018-08-30T21:33:31.150Z,351.63
2018-08-30T21:36:10.898Z,577.83
2018-08-30T21:38:52.279Z,608.03
2018-08-30T21:41:30.311Z,728.67
2018-08-30T21:44:09.650Z,740.97
2018-08-30T21:46:50.450Z,797.40
2018-08-30T21:49:30.770Z,804.33
2018-08-30T21:52:10.431Z,844.90
2018-08-30T21:54:48.438Z,879.77
2018-08-30T21:57:28.035Z,948.27
2018-08-30T22:00:10.053Z,961.87
2018-08-30T22:02:51.774Z,999.90
2018-08-30T22:05:31.899Z,999.90
2018-08-30T22:08:13.190Z,999.90
2018-08-30T22:10:52.872Z,999.90
2018-08-30T22:13:31.274Z,999.90
2018-08-30T22:16:09.633Z,998.30
2018-08-30T22:18:48.885Z,997.67
2018-08-30T22:21:35.853Z,992.47
2018-08-30T22:24:17.557Z,954.73
2018-08-30T23:50:23.358Z,474.90
2018-08-30T23:53:04.397Z,565.47
2018-08-30T23:55:43.237Z,642.53
2018-08-30T23:58:33.602Z,698.37
